sensor_id;sensor_type;location;lat;lon;timestamp;P1;durP1;ratioP1;P2;durP2;ratioP2
35887;SDS011;21990;42.540;23.496;2024-01-15T00:00:29;89.07;;;35.70;;
35887;SDS011;21990;42.540;23.496;2024-01-15T00:02:56;92.57;;;34.92;;
35887;SDS011;21990;42.540;23.496;2024-01-15T00:05:24;140.80;;;51.75;;
35887;SDS011;21990;42.540;23.496;2024-01-15T00:07:52;104.32;;;40.40;;
35887;SDS011;21990;42.540;23.496;2024-01-15T00:10:20;79.93;;;33.53;;
35887;SDS011;21990;42.540;23.496;2024-01-15T00:12:47;100.75;;;38.13;;
35887;SDS011;21990;42.540;23.496;2024-01-15T00:15:16;112.32;;;42.45;;
35887;SDS011;21990;42.540;23.496;2024-01-15T00:17:44;98.20;;;36.92;;
35887;SDS011;21990;42.540;23.496;2024-01-15T00:20:12;90.55;;;36.42;;
35887;SDS011;21990;42.540;23.496;2024-01-15T00:22:40;111.13;;;42.67;;
35887;SDS011;21990;42.540;23.496;2024-01-15T00:25:07;94.93;;;34.90;;
35887;SDS011;21990;42.540;23.496;2024-01-15T00:27:34;106.05;;;40.50;;
35887;SDS011;21990;42.540;23.496;2024-01-15T00:30:01;90.53;;;36.25;;
35887;SDS011;21990;42.540;23.496;2024-01-15T00:32:30;91.05;;;35.65;;
35887;SDS011;21990;42.540;23.496;2024-01-15T00:34:58;96.15;;;37.97;;
35887;SDS011;21990;42.540;23.496;2024-01-15T00:37:25;87.43;;;36.00;;
35887;SDS011;21990;42.540;23.496;2024-01-15T00:39:51;93.03;;;33.53;;
35887;SDS011;21990;42.540;23.496;2024-01-15T00:42:18;104.97;;;37.05;;
35887;SDS011;21990;42.540;23.496;2024-01-15T00:44:45;96.35;;;36.35;;
35887;SDS011;21990;42.540;23.496;2024-01-15T00:47:13;119.78;;;43.75;;
35887;SDS011;21990;42.540;23.496;2024-01-15T00:49:40;146.07;;;49.83;;
35887;SDS011;21990;42.540;23.496;2024-01-15T00:52:08;110.53;;;41.47;;
35887;SDS011;21990;42.540;23.496;2024-01-15T00:54:35;108.00;;;41.40;;
35887;SDS011;21990;42.540;23.496;2024-01-15T00:57:03;142.75;;;53.10;;
35887;SDS011;21990;42.540;23.496;2024-01-15T00:59:31;103.15;;;38.25;;
35887;SDS011;21990;42.540;23.496;2024-01-15T01:02:01;86.47;;;32.33;;
35887;SDS011;21990;42.540;23.496;2024-01-15T01:04:29;96.53;;;34.38;;
35887;SDS011;21990;42.540;23.496;2024-01-15T01:06:56;92.95;;;33.45;;
35887;SDS011;21990;42.540;23.496;2024-01-15T01:09:24;95.75;;;33.50;;
35887;SDS011;21990;42.540;23.496;2024-01-15T01:11:54;82.72;;;30.20;;
35887;SDS011;21990;42.540;23.496;2024-01-15T01:14:22;81.25;;;30.70;;
35887;SDS011;21990;42.540;23.496;2024-01-15T01:16:48;86.82;;;31.50;;
35887;SDS011;21990;42.540;23.496;2024-01-15T01:19:19;77.25;;;30.80;;
35887;SDS011;21990;42.540;23.496;2024-01-15T01:21:46;78.10;;;31.13;;
35887;SDS011;21990;42.540;23.496;2024-01-15T01:24:14;81.78;;;30.25;;
35887;SDS011;21990;42.540;23.496;2024-01-15T01:26:41;81.78;;;30.50;;
35887;SDS011;21990;42.540;23.496;2024-01-15T01:29:08;76.15;;;30.17;;
35887;SDS011;21990;42.540;23.496;2024-01-15T01:31:35;79.07;;;30.65;;
35887;SDS011;21990;42.540;23.496;2024-01-15T01:34:07;87.68;;;32.78;;
35887;SDS011;21990;42.540;23.496;2024-01-15T01:36:34;85.20;;;31.73;;
35887;SDS011;21990;42.540;23.496;2024-01-15T01:39:01;81.05;;;30.35;;
35887;SDS011;21990;42.540;23.496;2024-01-15T01:41:28;88.30;;;33.22;;
35887;SDS011;21990;42.540;23.496;2024-01-15T01:43:54;88.65;;;34.13;;
35887;SDS011;21990;42.540;23.496;2024-01-15T01:46:20;80.80;;;30.73;;
35887;SDS011;21990;42.540;23.496;2024-01-15T01:48:48;82.28;;;32.38;;
35887;SDS011;21990;42.540;23.496;2024-01-15T01:51:16;76.28;;;30.95;;
35887;SDS011;21990;42.540;23.496;2024-01-15T01:53:44;86.22;;;32.80;;
35887;SDS011;21990;42.540;23.496;2024-01-15T01:56:12;100.00;;;37.17;;
35887;SDS011;21990;42.540;23.496;2024-01-15T01:58:39;82.88;;;32.30;;
35887;SDS011;21990;42.540;23.496;2024-01-15T02:01:07;78.30;;;29.90;;
35887;SDS011;21990;42.540;23.496;2024-01-15T02:03:34;84.20;;;29.95;;
35887;SDS011;21990;42.540;23.496;2024-01-15T02:06:02;72.43;;;28.77;;
35887;SDS011;21990;42.540;23.496;2024-01-15T02:08:30;80.20;;;30.23;;
35887;SDS011;21990;42.540;23.496;2024-01-15T02:10:58;75.57;;;28.17;;
35887;SDS011;21990;42.540;23.496;2024-01-15T02:13:25;84.50;;;31.20;;
35887;SDS011;21990;42.540;23.496;2024-01-15T02:15:51;82.25;;;28.83;;
35887;SDS011;21990;42.540;23.496;2024-01-15T02:18:19;79.47;;;28.33;;
35887;SDS011;21990;42.540;23.496;2024-01-15T02:20:45;72.53;;;27.25;;
35887;SDS011;21990;42.540;23.496;2024-01-15T02:23:15;75.43;;;29.05;;
35887;SDS011;21990;42.540;23.496;2024-01-15T02:25:42;76.68;;;30.35;;
35887;SDS011;21990;42.540;23.496;2024-01-15T02:28:14;77.40;;;29.58;;
35887;SDS011;21990;42.540;23.496;2024-01-15T02:30:43;78.13;;;28.00;;
35887;SDS011;21990;42.540;23.496;2024-01-15T02:33:11;64.90;;;25.45;;
35887;SDS011;21990;42.540;23.496;2024-01-15T02:35:38;78.50;;;27.77;;
35887;SDS011;21990;42.540;23.496;2024-01-15T02:38:05;75.00;;;28.50;;
35887;SDS011;21990;42.540;23.496;2024-01-15T02:40:32;88.72;;;35.35;;
35887;SDS011;21990;42.540;23.496;2024-01-15T02:42:58;88.95;;;31.02;;
35887;SDS011;21990;42.540;23.496;2024-01-15T02:45:24;89.57;;;33.15;;
35887;SDS011;21990;42.540;23.496;2024-01-15T02:47:50;88.80;;;34.92;;
35887;SDS011;21990;42.540;23.496;2024-01-15T02:50:16;83.85;;;34.15;;
35887;SDS011;21990;42.540;23.496;2024-01-15T02:52:43;107.13;;;38.80;;
35887;SDS011;21990;42.540;23.496;2024-01-15T02:55:11;104.18;;;35.17;;
35887;SDS011;21990;42.540;23.496;2024-01-15T02:57:38;98.97;;;36.90;;
35887;SDS011;21990;42.540;23.496;2024-01-15T03:00:04;84.97;;;32.97;;
35887;SDS011;21990;42.540;23.496;2024-01-15T03:02:32;87.18;;;34.38;;
35887;SDS011;21990;42.540;23.496;2024-01-15T03:04:58;91.97;;;34.08;;
35887;SDS011;21990;42.540;23.496;2024-01-15T03:07:24;98.32;;;37.55;;
35887;SDS011;21990;42.540;23.496;2024-01-15T03:09:50;94.68;;;39.10;;
35887;SDS011;21990;42.540;23.496;2024-01-15T03:12:16;119.57;;;46.15;;
35887;SDS011;21990;42.540;23.496;2024-01-15T03:14:43;130.13;;;48.03;;
35887;SDS011;21990;42.540;23.496;2024-01-15T03:17:09;128.38;;;47.05;;
35887;SDS011;21990;42.540;23.496;2024-01-15T03:19:36;125.65;;;46.95;;
35887;SDS011;21990;42.540;23.496;2024-01-15T03:22:02;120.15;;;44.80;;
35887;SDS011;21990;42.540;23.496;2024-01-15T03:24:29;109.35;;;43.90;;
35887;SDS011;21990;42.540;23.496;2024-01-15T03:26:56;111.00;;;43.08;;
35887;SDS011;21990;42.540;23.496;2024-01-15T03:29:22;110.45;;;40.05;;
35887;SDS011;21990;42.540;23.496;2024-01-15T03:31:48;116.20;;;45.15;;
35887;SDS011;21990;42.540;23.496;2024-01-15T03:34:14;114.28;;;43.38;;
35887;SDS011;21990;42.540;23.496;2024-01-15T03:36:40;105.05;;;41.28;;
35887;SDS011;21990;42.540;23.496;2024-01-15T03:39:06;106.40;;;39.47;;
35887;SDS011;21990;42.540;23.496;2024-01-15T03:41:32;99.22;;;38.92;;
35887;SDS011;21990;42.540;23.496;2024-01-15T03:43:58;95.85;;;37.40;;
35887;SDS011;21990;42.540;23.496;2024-01-15T03:46:24;102.20;;;38.85;;
35887;SDS011;21990;42.540;23.496;2024-01-15T03:48:50;101.80;;;39.00;;
35887;SDS011;21990;42.540;23.496;2024-01-15T03:51:17;101.45;;;38.55;;
35887;SDS011;21990;42.540;23.496;2024-01-15T03:53:43;101.78;;;36.28;;
35887;SDS011;21990;42.540;23.496;2024-01-15T03:56:08;89.45;;;34.30;;
35887;SDS011;21990;42.540;23.496;2024-01-15T03:58:34;81.70;;;34.42;;
35887;SDS011;21990;42.540;23.496;2024-01-15T04:01:00;92.75;;;33.97;;
35887;SDS011;21990;42.540;23.496;2024-01-15T04:03:25;88.45;;;34.22;;
35887;SDS011;21990;42.540;23.496;2024-01-15T04:05:51;92.57;;;34.60;;
35887;SDS011;21990;42.540;23.496;2024-01-15T04:08:16;91.00;;;32.60;;
35887;SDS011;21990;42.540;23.496;2024-01-15T04:10:42;91.13;;;35.33;;
35887;SDS011;21990;42.540;23.496;2024-01-15T04:13:07;95.15;;;32.58;;
35887;SDS011;21990;42.540;23.496;2024-01-15T04:15:33;89.47;;;31.95;;
35887;SDS011;21990;42.540;23.496;2024-01-15T04:17:58;96.80;;;35.72;;
35887;SDS011;21990;42.540;23.496;2024-01-15T04:20:26;119.28;;;44.92;;
35887;SDS011;21990;42.540;23.496;2024-01-15T04:22:51;100.28;;;39.60;;
35887;SDS011;21990;42.540;23.496;2024-01-15T04:25:17;96.65;;;37.22;;
35887;SDS011;21990;42.540;23.496;2024-01-15T04:27:43;85.35;;;34.70;;
35887;SDS011;21990;42.540;23.496;2024-01-15T04:30:08;78.22;;;32.13;;
35887;SDS011;21990;42.540;23.496;2024-01-15T04:32:34;84.90;;;33.25;;
35887;SDS011;21990;42.540;23.496;2024-01-15T04:35:00;96.00;;;34.40;;
35887;SDS011;21990;42.540;23.496;2024-01-15T04:37:25;125.53;;;44.85;;
35887;SDS011;21990;42.540;23.496;2024-01-15T04:39:51;122.45;;;44.70;;
35887;SDS011;21990;42.540;23.496;2024-01-15T04:42:20;95.82;;;37.85;;
35887;SDS011;21990;42.540;23.496;2024-01-15T04:44:46;100.88;;;38.00;;
35887;SDS011;21990;42.540;23.496;2024-01-15T04:47:12;103.22;;;36.80;;
35887;SDS011;21990;42.540;23.496;2024-01-15T04:49:37;102.93;;;37.78;;
35887;SDS011;21990;42.540;23.496;2024-01-15T04:52:03;110.22;;;39.65;;
35887;SDS011;21990;42.540;23.496;2024-01-15T04:54:28;99.50;;;36.97;;
35887;SDS011;21990;42.540;23.496;2024-01-15T04:56:54;108.95;;;38.13;;
35887;SDS011;21990;42.540;23.496;2024-01-15T04:59:19;117.40;;;43.45;;
35887;SDS011;21990;42.540;23.496;2024-01-15T05:01:45;148.02;;;56.38;;
35887;SDS011;21990;42.540;23.496;2024-01-15T05:04:10;111.70;;;43.65;;
35887;SDS011;21990;42.540;23.496;2024-01-15T05:06:36;131.48;;;52.22;;
35887;SDS011;21990;42.540;23.496;2024-01-15T05:09:01;131.55;;;46.47;;
35887;SDS011;21990;42.540;23.496;2024-01-15T05:11:28;115.28;;;42.35;;
35887;SDS011;21990;42.540;23.496;2024-01-15T05:13:53;105.70;;;36.05;;
35887;SDS011;21990;42.540;23.496;2024-01-15T05:16:19;89.18;;;33.45;;
35887;SDS011;21990;42.540;23.496;2024-01-15T05:18:45;91.88;;;33.08;;
35887;SDS011;21990;42.540;23.496;2024-01-15T05:21:10;91.90;;;34.17;;
35887;SDS011;21990;42.540;23.496;2024-01-15T05:23:36;98.72;;;34.60;;
35887;SDS011;21990;42.540;23.496;2024-01-15T05:26:01;77.53;;;29.23;;
35887;SDS011;21990;42.540;23.496;2024-01-15T05:28:27;79.50;;;31.05;;
35887;SDS011;21990;42.540;23.496;2024-01-15T05:30:53;82.60;;;31.15;;
35887;SDS011;21990;42.540;23.496;2024-01-15T05:33:20;110.53;;;38.08;;
35887;SDS011;21990;42.540;23.496;2024-01-15T05:35:47;74.13;;;28.80;;
35887;SDS011;21990;42.540;23.496;2024-01-15T05:38:12;77.28;;;27.33;;
35887;SDS011;21990;42.540;23.496;2024-01-15T05:40:38;81.90;;;29.50;;
35887;SDS011;21990;42.540;23.496;2024-01-15T05:43:03;98.95;;;34.95;;
35887;SDS011;21990;42.540;23.496;2024-01-15T05:45:30;92.63;;;36.60;;
35887;SDS011;21990;42.540;23.496;2024-01-15T05:47:55;95.97;;;38.25;;
35887;SDS011;21990;42.540;23.496;2024-01-15T05:50:21;92.22;;;35.53;;
35887;SDS011;21990;42.540;23.496;2024-01-15T05:52:47;98.38;;;37.13;;
35887;SDS011;21990;42.540;23.496;2024-01-15T05:55:13;103.60;;;39.00;;
35887;SDS011;21990;42.540;23.496;2024-01-15T05:57:38;89.85;;;34.75;;
35887;SDS011;21990;42.540;23.496;2024-01-15T06:00:04;92.43;;;35.75;;
35887;SDS011;21990;42.540;23.496;2024-01-15T06:02:30;87.72;;;33.55;;
35887;SDS011;21990;42.540;23.496;2024-01-15T06:04:56;350.20;;;139.15;;
35887;SDS011;21990;42.540;23.496;2024-01-15T06:07:22;133.93;;;51.63;;
35887;SDS011;21990;42.540;23.496;2024-01-15T06:09:48;123.00;;;46.25;;
35887;SDS011;21990;42.540;23.496;2024-01-15T06:12:13;157.82;;;57.70;;
35887;SDS011;21990;42.540;23.496;2024-01-15T06:14:39;151.60;;;55.45;;
35887;SDS011;21990;42.540;23.496;2024-01-15T06:17:06;129.93;;;51.92;;
35887;SDS011;21990;42.540;23.496;2024-01-15T06:19:31;144.48;;;52.70;;
35887;SDS011;21990;42.540;23.496;2024-01-15T06:21:57;127.30;;;48.50;;
35887;SDS011;21990;42.540;23.496;2024-01-15T06:24:22;390.88;;;131.77;;
35887;SDS011;21990;42.540;23.496;2024-01-15T06:26:48;259.25;;;88.43;;
35887;SDS011;21990;42.540;23.496;2024-01-15T06:29:13;141.25;;;53.67;;
35887;SDS011;21990;42.540;23.496;2024-01-15T06:31:39;151.90;;;53.88;;
35887;SDS011;21990;42.540;23.496;2024-01-15T06:34:05;160.10;;;58.70;;
35887;SDS011;21990;42.540;23.496;2024-01-15T06:36:30;202.32;;;71.35;;
35887;SDS011;21990;42.540;23.496;2024-01-15T06:38:56;174.35;;;64.70;;
35887;SDS011;21990;42.540;23.496;2024-01-15T06:41:21;209.93;;;77.25;;
35887;SDS011;21990;42.540;23.496;2024-01-15T06:43:47;253.10;;;96.30;;
35887;SDS011;21990;42.540;23.496;2024-01-15T06:46:19;167.93;;;63.88;;
35887;SDS011;21990;42.540;23.496;2024-01-15T06:51:13;116.43;;;43.25;;
35887;SDS011;21990;42.540;23.496;2024-01-15T06:53:39;102.57;;;37.90;;
35887;SDS011;21990;42.540;23.496;2024-01-15T06:56:04;99.63;;;39.63;;
35887;SDS011;21990;42.540;23.496;2024-01-15T06:58:33;105.88;;;43.15;;
35887;SDS011;21990;42.540;23.496;2024-01-15T07:00:59;100.15;;;39.92;;
35887;SDS011;21990;42.540;23.496;2024-01-15T07:03:24;92.93;;;35.33;;
35887;SDS011;21990;42.540;23.496;2024-01-15T07:05:50;166.50;;;63.33;;
35887;SDS011;21990;42.540;23.496;2024-01-15T07:08:15;113.88;;;37.53;;
35887;SDS011;21990;42.540;23.496;2024-01-15T07:10:41;80.40;;;31.75;;
35887;SDS011;21990;42.540;23.496;2024-01-15T07:13:06;74.05;;;30.45;;
35887;SDS011;21990;42.540;23.496;2024-01-15T07:15:32;75.07;;;28.42;;
35887;SDS011;21990;42.540;23.496;2024-01-15T07:17:58;93.15;;;33.70;;
35887;SDS011;21990;42.540;23.496;2024-01-15T07:20:23;108.30;;;41.22;;
35887;SDS011;21990;42.540;23.496;2024-01-15T07:22:49;94.10;;;39.13;;
35887;SDS011;21990;42.540;23.496;2024-01-15T07:25:15;78.25;;;31.38;;
35887;SDS011;21990;42.540;23.496;2024-01-15T07:27:41;95.82;;;40.28;;
35887;SDS011;21990;42.540;23.496;2024-01-15T07:30:10;111.57;;;42.25;;
35887;SDS011;21990;42.540;23.496;2024-01-15T07:32:36;131.20;;;51.75;;
35887;SDS011;21990;42.540;23.496;2024-01-15T07:35:02;135.80;;;55.53;;
35887;SDS011;21990;42.540;23.496;2024-01-15T07:37:28;96.40;;;38.08;;
35887;SDS011;21990;42.540;23.496;2024-01-15T07:39:54;85.97;;;35.33;;
35887;SDS011;21990;42.540;23.496;2024-01-15T07:42:19;93.50;;;35.70;;
35887;SDS011;21990;42.540;23.496;2024-01-15T07:44:45;102.97;;;42.55;;
35887;SDS011;21990;42.540;23.496;2024-01-15T07:47:11;142.23;;;52.38;;
35887;SDS011;21990;42.540;23.496;2024-01-15T07:49:36;139.20;;;56.75;;
35887;SDS011;21990;42.540;23.496;2024-01-15T07:52:02;116.63;;;44.95;;
35887;SDS011;21990;42.540;23.496;2024-01-15T07:54:28;95.00;;;38.28;;
35887;SDS011;21990;42.540;23.496;2024-01-15T07:56:57;122.28;;;55.67;;
35887;SDS011;21990;42.540;23.496;2024-01-15T07:59:24;107.30;;;46.83;;
35887;SDS011;21990;42.540;23.496;2024-01-15T08:01:51;94.93;;;41.63;;
35887;SDS011;21990;42.540;23.496;2024-01-15T08:04:17;102.40;;;46.72;;
35887;SDS011;21990;42.540;23.496;2024-01-15T08:06:43;91.45;;;37.92;;
35887;SDS011;21990;42.540;23.496;2024-01-15T08:09:08;92.55;;;36.85;;
35887;SDS011;21990;42.540;23.496;2024-01-15T08:11:34;82.95;;;36.38;;
35887;SDS011;21990;42.540;23.496;2024-01-15T08:14:00;91.00;;;33.53;;
35887;SDS011;21990;42.540;23.496;2024-01-15T08:16:26;85.20;;;34.25;;
35887;SDS011;21990;42.540;23.496;2024-01-15T08:18:52;85.63;;;35.33;;
35887;SDS011;21990;42.540;23.496;2024-01-15T08:21:18;86.43;;;35.30;;
35887;SDS011;21990;42.540;23.496;2024-01-15T08:23:44;103.97;;;43.80;;
35887;SDS011;21990;42.540;23.496;2024-01-15T08:26:10;96.47;;;41.40;;
35887;SDS011;21990;42.540;23.496;2024-01-15T08:28:35;100.80;;;42.20;;
35887;SDS011;21990;42.540;23.496;2024-01-15T08:31:01;96.18;;;37.42;;
35887;SDS011;21990;42.540;23.496;2024-01-15T08:33:28;77.47;;;33.45;;
35887;SDS011;21990;42.540;23.496;2024-01-15T08:35:53;66.40;;;29.50;;
35887;SDS011;21990;42.540;23.496;2024-01-15T08:38:19;114.18;;;52.53;;
35887;SDS011;21990;42.540;23.496;2024-01-15T08:40:45;127.07;;;56.90;;
35887;SDS011;21990;42.540;23.496;2024-01-15T08:43:12;121.85;;;56.47;;
35887;SDS011;21990;42.540;23.496;2024-01-15T08:45:38;107.35;;;49.90;;
35887;SDS011;21990;42.540;23.496;2024-01-15T08:48:04;106.75;;;47.83;;
35887;SDS011;21990;42.540;23.496;2024-01-15T08:50:30;104.10;;;50.42;;
35887;SDS011;21990;42.540;23.496;2024-01-15T08:52:57;128.10;;;59.58;;
35887;SDS011;21990;42.540;23.496;2024-01-15T08:55:23;115.18;;;51.95;;
35887;SDS011;21990;42.540;23.496;2024-01-15T08:57:49;94.70;;;40.20;;
35887;SDS011;21990;42.540;23.496;2024-01-15T09:00:15;113.35;;;50.58;;
35887;SDS011;21990;42.540;23.496;2024-01-15T09:02:42;146.05;;;64.65;;
35887;SDS011;21990;42.540;23.496;2024-01-15T09:05:08;132.65;;;60.78;;
35887;SDS011;21990;42.540;23.496;2024-01-15T09:07:33;91.05;;;40.03;;
35887;SDS011;21990;42.540;23.496;2024-01-15T09:09:59;64.88;;;29.67;;
35887;SDS011;21990;42.540;23.496;2024-01-15T09:12:27;23.35;;;10.27;;
35887;SDS011;21990;42.540;23.496;2024-01-15T09:14:53;24.58;;;10.43;;
35887;SDS011;21990;42.540;23.496;2024-01-15T09:17:21;27.52;;;11.38;;
35887;SDS011;21990;42.540;23.496;2024-01-15T09:19:48;22.92;;;9.82;;
35887;SDS011;21990;42.540;23.496;2024-01-15T09:22:14;19.48;;;9.43;;
35887;SDS011;21990;42.540;23.496;2024-01-15T09:24:43;19.92;;;9.00;;
35887;SDS011;21990;42.540;23.496;2024-01-15T09:27:09;22.10;;;9.02;;
35887;SDS011;21990;42.540;23.496;2024-01-15T09:29:34;21.10;;;9.23;;
35887;SDS011;21990;42.540;23.496;2024-01-15T09:32:02;19.95;;;9.38;;
35887;SDS011;21990;42.540;23.496;2024-01-15T09:34:29;22.48;;;9.02;;
35887;SDS011;21990;42.540;23.496;2024-01-15T09:36:55;21.05;;;8.25;;
35887;SDS011;21990;42.540;23.496;2024-01-15T09:39:20;21.42;;;8.93;;
35887;SDS011;21990;42.540;23.496;2024-01-15T09:41:46;15.57;;;7.22;;
35887;SDS011;21990;42.540;23.496;2024-01-15T09:44:13;16.50;;;6.60;;
35887;SDS011;21990;42.540;23.496;2024-01-15T09:46:39;14.68;;;7.10;;
35887;SDS011;21990;42.540;23.496;2024-01-15T09:49:06;14.05;;;6.35;;
35887;SDS011;21990;42.540;23.496;2024-01-15T09:51:32;14.02;;;6.65;;
35887;SDS011;21990;42.540;23.496;2024-01-15T09:53:58;15.07;;;6.25;;
35887;SDS011;21990;42.540;23.496;2024-01-15T09:56:24;15.43;;;6.15;;
35887;SDS011;21990;42.540;23.496;2024-01-15T09:58:49;13.85;;;4.95;;
35887;SDS011;21990;42.540;23.496;2024-01-15T10:01:19;10.57;;;4.88;;
35887;SDS011;21990;42.540;23.496;2024-01-15T10:03:46;9.32;;;4.07;;
35887;SDS011;21990;42.540;23.496;2024-01-15T10:06:14;13.50;;;5.93;;
35887;SDS011;21990;42.540;23.496;2024-01-15T10:08:42;9.07;;;4.60;;
35887;SDS011;21990;42.540;23.496;2024-01-15T10:11:12;13.10;;;3.72;;
35887;SDS011;21990;42.540;23.496;2024-01-15T10:13:39;9.25;;;3.50;;
35887;SDS011;21990;42.540;23.496;2024-01-15T10:16:05;6.97;;;3.70;;
35887;SDS011;21990;42.540;23.496;2024-01-15T10:18:32;7.68;;;2.80;;
35887;SDS011;21990;42.540;23.496;2024-01-15T10:20:57;37.17;;;15.30;;
35887;SDS011;21990;42.540;23.496;2024-01-15T10:23:24;8.38;;;3.35;;
35887;SDS011;21990;42.540;23.496;2024-01-15T10:25:49;11.65;;;6.38;;
35887;SDS011;21990;42.540;23.496;2024-01-15T10:28:18;7.53;;;3.42;;
35887;SDS011;21990;42.540;23.496;2024-01-15T10:30:46;4.50;;;2.60;;
35887;SDS011;21990;42.540;23.496;2024-01-15T10:33:19;6.85;;;2.78;;
35887;SDS011;21990;42.540;23.496;2024-01-15T10:35:51;6.53;;;3.20;;
35887;SDS011;21990;42.540;23.496;2024-01-15T10:38:22;28.95;;;10.20;;
35887;SDS011;21990;42.540;23.496;2024-01-15T10:40:56;7.68;;;3.35;;
35887;SDS011;21990;42.540;23.496;2024-01-15T10:43:22;7.93;;;3.47;;
35887;SDS011;21990;42.540;23.496;2024-01-15T10:45:48;10.95;;;3.03;;
35887;SDS011;21990;42.540;23.496;2024-01-15T10:48:18;5.50;;;3.10;;
35887;SDS011;21990;42.540;23.496;2024-01-15T10:50:47;4.10;;;2.17;;
35887;SDS011;21990;42.540;23.496;2024-01-15T10:53:14;6.47;;;1.95;;
35887;SDS011;21990;42.540;23.496;2024-01-15T10:55:42;8.13;;;4.35;;
35887;SDS011;21990;42.540;23.496;2024-01-15T10:58:08;9.10;;;4.30;;
35887;SDS011;21990;42.540;23.496;2024-01-15T11:00:35;6.30;;;2.20;;
35887;SDS011;21990;42.540;23.496;2024-01-15T11:03:03;11.27;;;6.75;;
35887;SDS011;21990;42.540;23.496;2024-01-15T11:05:43;22.42;;;7.90;;
35887;SDS011;21990;42.540;23.496;2024-01-15T11:08:09;16.67;;;5.65;;
35887;SDS011;21990;42.540;23.496;2024-01-15T11:10:41;14.45;;;7.18;;
35887;SDS011;21990;42.540;23.496;2024-01-15T11:13:14;9.32;;;4.93;;
35887;SDS011;21990;42.540;23.496;2024-01-15T11:18:34;5.57;;;2.75;;
35887;SDS011;21990;42.540;23.496;2024-01-15T11:23:50;2.92;;;1.55;;
35887;SDS011;21990;42.540;23.496;2024-01-15T11:34:20;5.88;;;1.95;;
35887;SDS011;21990;42.540;23.496;2024-01-15T11:42:02;1.85;;;1.13;;
35887;SDS011;21990;42.540;23.496;2024-01-15T11:44:29;13.73;;;5.88;;
35887;SDS011;21990;42.540;23.496;2024-01-15T11:47:00;2.65;;;1.50;;
35887;SDS011;21990;42.540;23.496;2024-01-15T11:49:55;2.57;;;1.40;;
35887;SDS011;21990;42.540;23.496;2024-01-15T11:52:23;3.28;;;1.30;;
35887;SDS011;21990;42.540;23.496;2024-01-15T11:57:53;4.90;;;2.22;;
35887;SDS011;21990;42.540;23.496;2024-01-15T12:00:20;9.02;;;3.38;;
35887;SDS011;21990;42.540;23.496;2024-01-15T12:02:47;3.78;;;2.35;;
35887;SDS011;21990;42.540;23.496;2024-01-15T12:05:15;4.63;;;2.33;;
35887;SDS011;21990;42.540;23.496;2024-01-15T12:07:47;3.67;;;2.15;;
35887;SDS011;21990;42.540;23.496;2024-01-15T12:10:18;4.32;;;2.33;;
35887;SDS011;21990;42.540;23.496;2024-01-15T12:13:05;6.10;;;2.75;;
35887;SDS011;21990;42.540;23.496;2024-01-15T12:15:38;4.80;;;2.42;;
35887;SDS011;21990;42.540;23.496;2024-01-15T12:18:07;6.78;;;3.45;;
35887;SDS011;21990;42.540;23.496;2024-01-15T12:20:40;6.88;;;3.17;;
35887;SDS011;21990;42.540;23.496;2024-01-15T12:23:07;23.17;;;5.60;;
35887;SDS011;21990;42.540;23.496;2024-01-15T12:25:35;14.73;;;8.48;;
35887;SDS011;21990;42.540;23.496;2024-01-15T12:28:01;15.95;;;6.90;;
35887;SDS011;21990;42.540;23.496;2024-01-15T12:30:28;19.60;;;9.05;;
35887;SDS011;21990;42.540;23.496;2024-01-15T12:32:56;21.33;;;8.95;;
35887;SDS011;21990;42.540;23.496;2024-01-15T12:35:23;17.17;;;7.50;;
35887;SDS011;21990;42.540;23.496;2024-01-15T12:37:53;11.80;;;4.93;;
35887;SDS011;21990;42.540;23.496;2024-01-15T12:40:20;8.23;;;4.00;;
35887;SDS011;21990;42.540;23.496;2024-01-15T12:42:47;7.45;;;3.60;;
35887;SDS011;21990;42.540;23.496;2024-01-15T12:45:13;11.75;;;4.97;;
35887;SDS011;21990;42.540;23.496;2024-01-15T12:47:39;5.35;;;3.17;;
35887;SDS011;21990;42.540;23.496;2024-01-15T12:50:06;8.32;;;3.67;;
35887;SDS011;21990;42.540;23.496;2024-01-15T12:52:33;10.32;;;4.00;;
35887;SDS011;21990;42.540;23.496;2024-01-15T12:54:58;7.72;;;4.13;;
35887;SDS011;21990;42.540;23.496;2024-01-15T12:57:24;7.45;;;4.28;;
35887;SDS011;21990;42.540;23.496;2024-01-15T12:59:50;7.22;;;3.95;;
35887;SDS011;21990;42.540;23.496;2024-01-15T13:02:16;8.13;;;4.10;;
35887;SDS011;21990;42.540;23.496;2024-01-15T13:04:42;8.00;;;4.05;;
35887;SDS011;21990;42.540;23.496;2024-01-15T13:07:09;9.70;;;4.05;;
35887;SDS011;21990;42.540;23.496;2024-01-15T13:09:35;9.00;;;4.72;;
35887;SDS011;21990;42.540;23.496;2024-01-15T13:12:01;11.48;;;4.78;;
35887;SDS011;21990;42.540;23.496;2024-01-15T13:14:28;10.27;;;5.60;;
35887;SDS011;21990;42.540;23.496;2024-01-15T13:16:54;9.50;;;4.65;;
35887;SDS011;21990;42.540;23.496;2024-01-15T13:19:23;6.93;;;4.10;;
35887;SDS011;21990;42.540;23.496;2024-01-15T13:21:49;10.88;;;4.32;;
35887;SDS011;21990;42.540;23.496;2024-01-15T13:24:16;8.52;;;4.75;;
35887;SDS011;21990;42.540;23.496;2024-01-15T13:26:44;8.82;;;4.63;;
35887;SDS011;21990;42.540;23.496;2024-01-15T13:29:10;9.45;;;4.85;;
35887;SDS011;21990;42.540;23.496;2024-01-15T13:31:36;9.63;;;3.95;;
35887;SDS011;21990;42.540;23.496;2024-01-15T13:34:01;11.18;;;5.85;;
35887;SDS011;21990;42.540;23.496;2024-01-15T13:36:28;10.38;;;5.22;;
35887;SDS011;21990;42.540;23.496;2024-01-15T13:38:54;12.90;;;4.80;;
35887;SDS011;21990;42.540;23.496;2024-01-15T13:41:20;7.60;;;3.97;;
35887;SDS011;21990;42.540;23.496;2024-01-15T13:44:04;9.25;;;4.03;;
35887;SDS011;21990;42.540;23.496;2024-01-15T13:46:30;9.95;;;4.20;;
35887;SDS011;21990;42.540;23.496;2024-01-15T13:48:55;8.32;;;4.00;;
35887;SDS011;21990;42.540;23.496;2024-01-15T13:51:22;14.50;;;4.10;;
35887;SDS011;21990;42.540;23.496;2024-01-15T13:53:51;10.82;;;4.72;;
35887;SDS011;21990;42.540;23.496;2024-01-15T13:56:18;11.45;;;4.20;;
35887;SDS011;21990;42.540;23.496;2024-01-15T13:58:44;20.70;;;5.22;;
35887;SDS011;21990;42.540;23.496;2024-01-15T14:01:10;7.40;;;3.83;;
35887;SDS011;21990;42.540;23.496;2024-01-15T14:03:36;10.85;;;4.65;;
35887;SDS011;21990;42.540;23.496;2024-01-15T14:06:02;10.13;;;4.80;;
35887;SDS011;21990;42.540;23.496;2024-01-15T14:08:29;10.60;;;4.50;;
35887;SDS011;21990;42.540;23.496;2024-01-15T14:10:54;9.27;;;3.95;;
35887;SDS011;21990;42.540;23.496;2024-01-15T14:13:22;12.73;;;4.05;;
35887;SDS011;21990;42.540;23.496;2024-01-15T14:15:47;11.27;;;4.40;;
35887;SDS011;21990;42.540;23.496;2024-01-15T14:18:15;16.08;;;4.00;;
35887;SDS011;21990;42.540;23.496;2024-01-15T14:20:41;9.10;;;4.03;;
35887;SDS011;21990;42.540;23.496;2024-01-15T14:23:08;8.43;;;4.32;;
35887;SDS011;21990;42.540;23.496;2024-01-15T14:25:34;8.02;;;4.07;;
35887;SDS011;21990;42.540;23.496;2024-01-15T14:27:59;11.07;;;4.20;;
35887;SDS011;21990;42.540;23.496;2024-01-15T14:30:25;8.82;;;4.40;;
35887;SDS011;21990;42.540;23.496;2024-01-15T14:32:50;7.55;;;4.22;;